sensor_id;sensor_type;location;lat;lon;timestamp;P1;durP1;ratioP1;P2;durP2;ratioP2
81306;SDS011;70775;50.846;3.224;2024-02-15T00:02:09;15.07;;;4.47;;
81306;SDS011;70775;50.846;3.224;2024-02-15T00:04:36;14.98;;;4.65;;
81306;SDS011;70775;50.846;3.224;2024-02-15T00:07:01;14.23;;;5.00;;
81306;SDS011;70775;50.846;3.224;2024-02-15T00:09:27;12.43;;;4.43;;
81306;SDS011;70775;50.846;3.224;2024-02-15T00:11:53;15.05;;;4.72;;
81306;SDS011;70775;50.846;3.224;2024-02-15T00:14:19;10.82;;;4.30;;
81306;SDS011;70775;50.846;3.224;2024-02-15T00:16:45;11.45;;;4.65;;
81306;SDS011;70775;50.846;3.224;2024-02-15T00:19:11;12.65;;;3.78;;
81306;SDS011;70775;50.846;3.224;2024-02-15T00:21:36;12.00;;;3.78;;
81306;SDS011;70775;50.846;3.224;2024-02-15T00:24:02;9.10;;;3.85;;
81306;SDS011;70775;50.846;3.224;2024-02-15T00:26:28;13.57;;;4.55;;
81306;SDS011;70775;50.846;3.224;2024-02-15T00:28:53;13.63;;;4.60;;
81306;SDS011;70775;50.846;3.224;2024-02-15T00:31:19;16.42;;;4.82;;
81306;SDS011;70775;50.846;3.224;2024-02-15T00:33:45;14.20;;;4.32;;
81306;SDS011;70775;50.846;3.224;2024-02-15T00:36:10;16.55;;;3.60;;
81306;SDS011;70775;50.846;3.224;2024-02-15T00:38:36;14.40;;;4.45;;
81306;SDS011;70775;50.846;3.224;2024-02-15T00:41:02;14.13;;;4.75;;
81306;SDS011;70775;50.846;3.224;2024-02-15T00:43:27;13.80;;;3.65;;
81306;SDS011;70775;50.846;3.224;2024-02-15T00:45:53;22.80;;;6.38;;
81306;SDS011;70775;50.846;3.224;2024-02-15T00:48:19;14.02;;;4.60;;
81306;SDS011;70775;50.846;3.224;2024-02-15T00:50:45;12.65;;;4.70;;
81306;SDS011;70775;50.846;3.224;2024-02-15T00:53:11;13.85;;;4.72;;
81306;SDS011;70775;50.846;3.224;2024-02-15T00:55:36;22.17;;;4.63;;
81306;SDS011;70775;50.846;3.224;2024-02-15T00:58:02;13.73;;;4.28;;
81306;SDS011;70775;50.846;3.224;2024-02-15T01:00:28;12.65;;;4.95;;
81306;SDS011;70775;50.846;3.224;2024-02-15T01:02:55;10.60;;;4.25;;
81306;SDS011;70775;50.846;3.224;2024-02-15T01:05:20;15.20;;;5.22;;
81306;SDS011;70775;50.846;3.224;2024-02-15T01:07:47;14.32;;;4.25;;
81306;SDS011;70775;50.846;3.224;2024-02-15T01:10:14;14.52;;;4.40;;
81306;SDS011;70775;50.846;3.224;2024-02-15T01:12:40;12.90;;;4.70;;
81306;SDS011;70775;50.846;3.224;2024-02-15T01:15:06;11.40;;;3.97;;
81306;SDS011;70775;50.846;3.224;2024-02-15T01:17:31;10.73;;;4.50;;
81306;SDS011;70775;50.846;3.224;2024-02-15T01:19:57;10.90;;;4.47;;
81306;SDS011;70775;50.846;3.224;2024-02-15T01:22:23;14.98;;;5.25;;
81306;SDS011;70775;50.846;3.224;2024-02-15T01:24:52;9.77;;;4.00;;
81306;SDS011;70775;50.846;3.224;2024-02-15T01:27:18;12.80;;;5.18;;
81306;SDS011;70775;50.846;3.224;2024-02-15T01:29:44;10.48;;;4.90;;
81306;SDS011;70775;50.846;3.224;2024-02-15T01:32:10;13.75;;;4.72;;
81306;SDS011;70775;50.846;3.224;2024-02-15T01:34:35;11.10;;;3.88;;
81306;SDS011;70775;50.846;3.224;2024-02-15T01:37:01;13.50;;;5.10;;
81306;SDS011;70775;50.846;3.224;2024-02-15T01:39:26;11.95;;;4.70;;
81306;SDS011;70775;50.846;3.224;2024-02-15T01:41:52;11.30;;;4.25;;
81306;SDS011;70775;50.846;3.224;2024-02-15T01:44:21;12.48;;;5.00;;
81306;SDS011;70775;50.846;3.224;2024-02-15T01:46:49;13.70;;;4.45;;
81306;SDS011;70775;50.846;3.224;2024-02-15T01:49:18;18.10;;;4.60;;
81306;SDS011;70775;50.846;3.224;2024-02-15T01:51:44;9.07;;;4.70;;
81306;SDS011;70775;50.846;3.224;2024-02-15T01:54:11;17.23;;;5.25;;
81306;SDS011;70775;50.846;3.224;2024-02-15T01:56:38;15.73;;;4.97;;
81306;SDS011;70775;50.846;3.224;2024-02-15T01:59:04;9.10;;;4.60;;
81306;SDS011;70775;50.846;3.224;2024-02-15T02:01:31;10.27;;;4.57;;
81306;SDS011;70775;50.846;3.224;2024-02-15T02:03:59;12.35;;;4.47;;
81306;SDS011;70775;50.846;3.224;2024-02-15T02:06:26;14.10;;;4.13;;
81306;SDS011;70775;50.846;3.224;2024-02-15T02:08:52;17.00;;;5.40;;
81306;SDS011;70775;50.846;3.224;2024-02-15T02:11:21;9.40;;;5.00;;
81306;SDS011;70775;50.846;3.224;2024-02-15T02:13:47;14.00;;;4.57;;
81306;SDS011;70775;50.846;3.224;2024-02-15T02:16:26;16.40;;;6.30;;
81306;SDS011;70775;50.846;3.224;2024-02-15T02:18:57;8.18;;;4.30;;
81306;SDS011;70775;50.846;3.224;2024-02-15T02:21:27;14.13;;;5.55;;
81306;SDS011;70775;50.846;3.224;2024-02-15T02:23:56;11.18;;;4.75;;
81306;SDS011;70775;50.846;3.224;2024-02-15T02:26:23;17.85;;;5.25;;
81306;SDS011;70775;50.846;3.224;2024-02-15T02:28:49;9.70;;;4.65;;
81306;SDS011;70775;50.846;3.224;2024-02-15T02:31:18;14.60;;;4.65;;
81306;SDS011;70775;50.846;3.224;2024-02-15T02:33:50;17.02;;;5.38;;
81306;SDS011;70775;50.846;3.224;2024-02-15T02:36:17;17.38;;;5.57;;
81306;SDS011;70775;50.846;3.224;2024-02-15T02:38:43;13.60;;;4.75;;
81306;SDS011;70775;50.846;3.224;2024-02-15T02:41:10;10.88;;;5.22;;
81306;SDS011;70775;50.846;3.224;2024-02-15T02:43:38;11.52;;;5.32;;
81306;SDS011;70775;50.846;3.224;2024-02-15T02:46:05;9.98;;;4.70;;
81306;SDS011;70775;50.846;3.224;2024-02-15T02:48:31;15.52;;;6.82;;
81306;SDS011;70775;50.846;3.224;2024-02-15T02:50:57;16.67;;;6.65;;
81306;SDS011;70775;50.846;3.224;2024-02-15T02:53:23;14.98;;;5.20;;
81306;SDS011;70775;50.846;3.224;2024-02-15T02:55:49;10.13;;;5.25;;
81306;SDS011;70775;50.846;3.224;2024-02-15T02:58:16;13.00;;;5.20;;
81306;SDS011;70775;50.846;3.224;2024-02-15T03:00:42;16.42;;;5.00;;
81306;SDS011;70775;50.846;3.224;2024-02-15T03:03:07;9.88;;;4.88;;
81306;SDS011;70775;50.846;3.224;2024-02-15T03:05:34;13.18;;;4.90;;
81306;SDS011;70775;50.846;3.224;2024-02-15T03:08:00;18.02;;;5.22;;
81306;SDS011;70775;50.846;3.224;2024-02-15T03:10:25;15.18;;;4.93;;
81306;SDS011;70775;50.846;3.224;2024-02-15T03:12:51;15.27;;;6.22;;
81306;SDS011;70775;50.846;3.224;2024-02-15T03:15:17;13.18;;;5.05;;
81306;SDS011;70775;50.846;3.224;2024-02-15T03:17:43;13.18;;;5.45;;
81306;SDS011;70775;50.846;3.224;2024-02-15T03:20:12;16.05;;;6.00;;
81306;SDS011;70775;50.846;3.224;2024-02-15T03:22:50;15.05;;;6.07;;
81306;SDS011;70775;50.846;3.224;2024-02-15T03:25:17;18.20;;;5.45;;
81306;SDS011;70775;50.846;3.224;2024-02-15T03:27:43;16.35;;;5.88;;
81306;SDS011;70775;50.846;3.224;2024-02-15T03:30:08;12.40;;;5.45;;
81306;SDS011;70775;50.846;3.224;2024-02-15T03:32:35;11.70;;;5.13;;
81306;SDS011;70775;50.846;3.224;2024-02-15T03:35:02;14.40;;;5.30;;
81306;SDS011;70775;50.846;3.224;2024-02-15T03:37:28;14.05;;;5.95;;
81306;SDS011;70775;50.846;3.224;2024-02-15T03:39:54;15.52;;;5.32;;
81306;SDS011;70775;50.846;3.224;2024-02-15T03:42:20;15.23;;;6.15;;
81306;SDS011;70775;50.846;3.224;2024-02-15T03:44:46;14.52;;;5.10;;
81306;SDS011;70775;50.846;3.224;2024-02-15T03:47:13;12.05;;;5.88;;
81306;SDS011;70775;50.846;3.224;2024-02-15T03:49:40;15.93;;;6.28;;
81306;SDS011;70775;50.846;3.224;2024-02-15T03:52:08;10.27;;;5.05;;
81306;SDS011;70775;50.846;3.224;2024-02-15T03:54:37;15.65;;;5.45;;
81306;SDS011;70775;50.846;3.224;2024-02-15T03:57:05;16.38;;;5.68;;
81306;SDS011;70775;50.846;3.224;2024-02-15T03:59:32;16.35;;;5.50;;
81306;SDS011;70775;50.846;3.224;2024-02-15T04:01:59;10.07;;;5.03;;
81306;SDS011;70775;50.846;3.224;2024-02-15T04:04:25;13.90;;;5.43;;
81306;SDS011;70775;50.846;3.224;2024-02-15T04:06:54;13.75;;;5.28;;
81306;SDS011;70775;50.846;3.224;2024-02-15T04:09:20;15.02;;;5.35;;
81306;SDS011;70775;50.846;3.224;2024-02-15T04:11:46;13.07;;;5.30;;
81306;SDS011;70775;50.846;3.224;2024-02-15T04:14:15;11.63;;;4.88;;
81306;SDS011;70775;50.846;3.224;2024-02-15T04:16:43;12.70;;;4.47;;
81306;SDS011;70775;50.846;3.224;2024-02-15T04:19:09;15.02;;;5.60;;
81306;SDS011;70775;50.846;3.224;2024-02-15T04:21:35;14.13;;;4.80;;
81306;SDS011;70775;50.846;3.224;2024-02-15T04:24:01;14.32;;;4.57;;
81306;SDS011;70775;50.846;3.224;2024-02-15T04:26:27;14.85;;;4.40;;
81306;SDS011;70775;50.846;3.224;2024-02-15T04:28:55;13.82;;;5.07;;
81306;SDS011;70775;50.846;3.224;2024-02-15T04:31:22;17.30;;;4.93;;
81306;SDS011;70775;50.846;3.224;2024-02-15T04:33:51;11.38;;;4.40;;
81306;SDS011;70775;50.846;3.224;2024-02-15T04:36:18;15.82;;;4.85;;
81306;SDS011;70775;50.846;3.224;2024-02-15T04:38:48;14.15;;;4.95;;
81306;SDS011;70775;50.846;3.224;2024-02-15T04:41:15;15.07;;;5.25;;
81306;SDS011;70775;50.846;3.224;2024-02-15T04:43:46;12.20;;;4.78;;
81306;SDS011;70775;50.846;3.224;2024-02-15T04:46:12;14.43;;;6.22;;
81306;SDS011;70775;50.846;3.224;2024-02-15T04:48:39;14.27;;;5.57;;
81306;SDS011;70775;50.846;3.224;2024-02-15T04:51:07;23.58;;;6.97;;
81306;SDS011;70775;50.846;3.224;2024-02-15T04:53:32;12.57;;;5.60;;
81306;SDS011;70775;50.846;3.224;2024-02-15T04:55:58;17.50;;;6.55;;
81306;SDS011;70775;50.846;3.224;2024-02-15T04:58:26;14.63;;;6.97;;
81306;SDS011;70775;50.846;3.224;2024-02-15T05:00:54;15.18;;;7.38;;
81306;SDS011;70775;50.846;3.224;2024-02-15T05:03:24;13.43;;;7.05;;
81306;SDS011;70775;50.846;3.224;2024-02-15T05:05:50;21.27;;;7.78;;
81306;SDS011;70775;50.846;3.224;2024-02-15T05:08:15;18.20;;;7.45;;
81306;SDS011;70775;50.846;3.224;2024-02-15T05:10:41;23.20;;;7.40;;
81306;SDS011;70775;50.846;3.224;2024-02-15T05:13:07;19.35;;;7.50;;
81306;SDS011;70775;50.846;3.224;2024-02-15T05:15:33;21.75;;;8.25;;
81306;SDS011;70775;50.846;3.224;2024-02-15T05:17:58;14.43;;;6.72;;
81306;SDS011;70775;50.846;3.224;2024-02-15T05:20:26;21.45;;;8.45;;
81306;SDS011;70775;50.846;3.224;2024-02-15T05:22:52;19.40;;;8.52;;
81306;SDS011;70775;50.846;3.224;2024-02-15T05:25:19;19.63;;;7.82;;
81306;SDS011;70775;50.846;3.224;2024-02-15T05:27:48;17.33;;;6.97;;
81306;SDS011;70775;50.846;3.224;2024-02-15T05:30:13;20.55;;;8.35;;
81306;SDS011;70775;50.846;3.224;2024-02-15T05:32:40;21.08;;;9.05;;
81306;SDS011;70775;50.846;3.224;2024-02-15T05:35:11;20.65;;;8.15;;
81306;SDS011;70775;50.846;3.224;2024-02-15T05:37:40;16.08;;;7.82;;
81306;SDS011;70775;50.846;3.224;2024-02-15T05:40:06;14.25;;;6.15;;
81306;SDS011;70775;50.846;3.224;2024-02-15T05:42:32;18.17;;;7.22;;
81306;SDS011;70775;50.846;3.224;2024-02-15T05:45:43;17.38;;;6.70;;
81306;SDS011;70775;50.846;3.224;2024-02-15T05:47:50;17.02;;;7.10;;
81306;SDS011;70775;50.846;3.224;2024-02-15T05:50:16;17.50;;;6.88;;
81306;SDS011;70775;50.846;3.224;2024-02-15T05:52:45;21.02;;;7.00;;
81306;SDS011;70775;50.846;3.224;2024-02-15T05:55:11;18.70;;;6.95;;
81306;SDS011;70775;50.846;3.224;2024-02-15T05:57:39;18.60;;;7.15;;
81306;SDS011;70775;50.846;3.224;2024-02-15T06:00:05;19.33;;;6.90;;
81306;SDS011;70775;50.846;3.224;2024-02-15T06:02:31;17.45;;;6.47;;
81306;SDS011;70775;50.846;3.224;2024-02-15T06:04:57;17.45;;;6.47;;
81306;SDS011;70775;50.846;3.224;2024-02-15T06:07:27;14.88;;;6.40;;
81306;SDS011;70775;50.846;3.224;2024-02-15T06:09:53;14.68;;;6.22;;
81306;SDS011;70775;50.846;3.224;2024-02-15T06:12:19;10.60;;;5.00;;
81306;SDS011;70775;50.846;3.224;2024-02-15T06:14:45;15.25;;;6.10;;
81306;SDS011;70775;50.846;3.224;2024-02-15T06:17:11;13.32;;;5.75;;
81306;SDS011;70775;50.846;3.224;2024-02-15T06:19:37;14.23;;;6.03;;
81306;SDS011;70775;50.846;3.224;2024-02-15T06:22:02;15.65;;;5.97;;
81306;SDS011;70775;50.846;3.224;2024-02-15T06:24:29;13.20;;;6.07;;
81306;SDS011;70775;50.846;3.224;2024-02-15T06:26:55;12.88;;;6.22;;
81306;SDS011;70775;50.846;3.224;2024-02-15T06:29:24;16.33;;;5.85;;
81306;SDS011;70775;50.846;3.224;2024-02-15T06:32:09;16.55;;;6.45;;
81306;SDS011;70775;50.846;3.224;2024-02-15T06:34:54;15.32;;;6.20;;
81306;SDS011;70775;50.846;3.224;2024-02-15T06:37:38;20.08;;;6.30;;
81306;SDS011;70775;50.846;3.224;2024-02-15T06:40:25;16.15;;;5.43;;
81306;SDS011;70775;50.846;3.224;2024-02-15T06:42:51;13.60;;;5.75;;
81306;SDS011;70775;50.846;3.224;2024-02-15T06:45:16;14.75;;;5.90;;
81306;SDS011;70775;50.846;3.224;2024-02-15T06:47:46;14.13;;;6.18;;
81306;SDS011;70775;50.846;3.224;2024-02-15T06:50:12;12.48;;;6.75;;
81306;SDS011;70775;50.846;3.224;2024-02-15T06:52:42;14.32;;;6.03;;
81306;SDS011;70775;50.846;3.224;2024-02-15T06:55:08;14.73;;;5.95;;
81306;SDS011;70775;50.846;3.224;2024-02-15T06:57:37;12.48;;;5.47;;
81306;SDS011;70775;50.846;3.224;2024-02-15T07:00:06;11.68;;;5.30;;
81306;SDS011;70775;50.846;3.224;2024-02-15T07:02:35;13.15;;;5.35;;
81306;SDS011;70775;50.846;3.224;2024-02-15T07:05:02;19.55;;;6.15;;
81306;SDS011;70775;50.846;3.224;2024-02-15T07:07:31;11.10;;;5.65;;
81306;SDS011;70775;50.846;3.224;2024-02-15T07:09:57;15.45;;;5.65;;
81306;SDS011;70775;50.846;3.224;2024-02-15T07:12:23;14.75;;;5.05;;
81306;SDS011;70775;50.846;3.224;2024-02-15T07:14:49;12.95;;;5.10;;
81306;SDS011;70775;50.846;3.224;2024-02-15T07:17:15;15.32;;;5.72;;
81306;SDS011;70775;50.846;3.224;2024-02-15T07:19:42;13.32;;;6.07;;
81306;SDS011;70775;50.846;3.224;2024-02-15T07:22:09;12.10;;;6.63;;
81306;SDS011;70775;50.846;3.224;2024-02-15T07:24:35;13.05;;;5.85;;
81306;SDS011;70775;50.846;3.224;2024-02-15T07:27:03;14.25;;;6.47;;
81306;SDS011;70775;50.846;3.224;2024-02-15T07:29:30;12.13;;;6.38;;
81306;SDS011;70775;50.846;3.224;2024-02-15T07:31:57;15.40;;;6.30;;
81306;SDS011;70775;50.846;3.224;2024-02-15T07:34:25;14.55;;;6.15;;
81306;SDS011;70775;50.846;3.224;2024-02-15T07:36:51;16.60;;;6.85;;
81306;SDS011;70775;50.846;3.224;2024-02-15T07:39:17;13.95;;;6.70;;
81306;SDS011;70775;50.846;3.224;2024-02-15T07:41:52;15.63;;;6.13;;
81306;SDS011;70775;50.846;3.224;2024-02-15T07:44:19;14.60;;;5.80;;
81306;SDS011;70775;50.846;3.224;2024-02-15T07:46:45;11.80;;;5.88;;
81306;SDS011;70775;50.846;3.224;2024-02-15T07:49:11;10.23;;;5.95;;
81306;SDS011;70775;50.846;3.224;2024-02-15T07:51:37;16.55;;;5.60;;
81306;SDS011;70775;50.846;3.224;2024-02-15T07:54:03;16.15;;;4.80;;
81306;SDS011;70775;50.846;3.224;2024-02-15T07:56:29;12.32;;;4.53;;
81306;SDS011;70775;50.846;3.224;2024-02-15T07:58:55;14.93;;;5.30;;
81306;SDS011;70775;50.846;3.224;2024-02-15T08:01:21;12.43;;;6.10;;
81306;SDS011;70775;50.846;3.224;2024-02-15T08:03:47;12.23;;;5.07;;
81306;SDS011;70775;50.846;3.224;2024-02-15T08:06:14;14.13;;;4.82;;
81306;SDS011;70775;50.846;3.224;2024-02-15T08:08:44;13.02;;;5.15;;
81306;SDS011;70775;50.846;3.224;2024-02-15T08:11:11;12.55;;;5.88;;
81306;SDS011;70775;50.846;3.224;2024-02-15T08:13:44;10.93;;;4.70;;
81306;SDS011;70775;50.846;3.224;2024-02-15T08:16:10;16.80;;;5.60;;
81306;SDS011;70775;50.846;3.224;2024-02-15T08:18:37;9.73;;;4.93;;
81306;SDS011;70775;50.846;3.224;2024-02-15T08:21:04;11.50;;;5.65;;
81306;SDS011;70775;50.846;3.224;2024-02-15T08:23:30;9.23;;;4.30;;
81306;SDS011;70775;50.846;3.224;2024-02-15T08:25:57;12.93;;;4.97;;
81306;SDS011;70775;50.846;3.224;2024-02-15T08:28:23;12.43;;;5.30;;
81306;SDS011;70775;50.846;3.224;2024-02-15T08:30:48;12.77;;;5.32;;
81306;SDS011;70775;50.846;3.224;2024-02-15T08:33:14;10.60;;;4.95;;
81306;SDS011;70775;50.846;3.224;2024-02-15T08:35:40;15.20;;;5.22;;
81306;SDS011;70775;50.846;3.224;2024-02-15T08:38:06;17.95;;;5.05;;
81306;SDS011;70775;50.846;3.224;2024-02-15T08:40:32;9.80;;;5.10;;
81306;SDS011;70775;50.846;3.224;2024-02-15T08:42:58;12.88;;;4.63;;
81306;SDS011;70775;50.846;3.224;2024-02-15T08:45:24;11.20;;;5.60;;
81306;SDS011;70775;50.846;3.224;2024-02-15T08:47:49;15.23;;;4.90;;
81306;SDS011;70775;50.846;3.224;2024-02-15T08:50:18;15.55;;;4.45;;
81306;SDS011;70775;50.846;3.224;2024-02-15T08:52:44;11.60;;;4.05;;
81306;SDS011;70775;50.846;3.224;2024-02-15T08:55:11;7.53;;;3.75;;
81306;SDS011;70775;50.846;3.224;2024-02-15T08:57:39;12.95;;;4.85;;
81306;SDS011;70775;50.846;3.224;2024-02-15T09:00:10;10.13;;;4.22;;
81306;SDS011;70775;50.846;3.224;2024-02-15T09:02:48;12.55;;;4.60;;
81306;SDS011;70775;50.846;3.224;2024-02-15T09:05:14;14.77;;;5.13;;
81306;SDS011;70775;50.846;3.224;2024-02-15T09:07:40;11.27;;;4.45;;
81306;SDS011;70775;50.846;3.224;2024-02-15T09:10:08;10.10;;;4.45;;
81306;SDS011;70775;50.846;3.224;2024-02-15T09:12:35;11.40;;;4.22;;
81306;SDS011;70775;50.846;3.224;2024-02-15T09:15:03;11.88;;;4.05;;
81306;SDS011;70775;50.846;3.224;2024-02-15T09:17:29;7.40;;;3.65;;
81306;SDS011;70775;50.846;3.224;2024-02-15T09:19:57;12.02;;;4.25;;
81306;SDS011;70775;50.846;3.224;2024-02-15T09:22:23;10.98;;;4.50;;
81306;SDS011;70775;50.846;3.224;2024-02-15T09:24:49;9.07;;;4.38;;
81306;SDS011;70775;50.846;3.224;2024-02-15T09:27:15;10.10;;;5.03;;
81306;SDS011;70775;50.846;3.224;2024-02-15T09:29:40;11.73;;;4.20;;
81306;SDS011;70775;50.846;3.224;2024-02-15T09:32:07;8.85;;;3.83;;
81306;SDS011;70775;50.846;3.224;2024-02-15T09:34:33;16.40;;;4.97;;
81306;SDS011;70775;50.846;3.224;2024-02-15T09:36:58;8.55;;;4.18;;
81306;SDS011;70775;50.846;3.224;2024-02-15T09:39:24;8.40;;;4.15;;
81306;SDS011;70775;50.846;3.224;2024-02-15T09:41:49;14.73;;;4.40;;
81306;SDS011;70775;50.846;3.224;2024-02-15T09:44:20;10.73;;;4.18;;
81306;SDS011;70775;50.846;3.224;2024-02-15T09:46:46;8.35;;;3.95;;
81306;SDS011;70775;50.846;3.224;2024-02-15T09:49:19;11.13;;;4.30;;
81306;SDS011;70775;50.846;3.224;2024-02-15T09:51:45;8.68;;;3.90;;
81306;SDS011;70775;50.846;3.224;2024-02-15T09:54:13;9.07;;;4.40;;
81306;SDS011;70775;50.846;3.224;2024-02-15T09:56:47;10.70;;;3.88;;
81306;SDS011;70775;50.846;3.224;2024-02-15T09:59:18;12.52;;;4.95;;
81306;SDS011;70775;50.846;3.224;2024-02-15T10:01:44;8.32;;;3.55;;
81306;SDS011;70775;50.846;3.224;2024-02-15T10:04:12;10.60;;;4.13;;
81306;SDS011;70775;50.846;3.224;2024-02-15T10:06:41;8.35;;;3.33;;
81306;SDS011;70775;50.846;3.224;2024-02-15T10:09:28;8.95;;;3.80;;
81306;SDS011;70775;50.846;3.224;2024-02-15T10:11:56;10.43;;;3.83;;
81306;SDS011;70775;50.846;3.224;2024-02-15T10:14:26;7.80;;;3.80;;
81306;SDS011;70775;50.846;3.224;2024-02-15T10:16:53;11.50;;;3.88;;
81306;SDS011;70775;50.846;3.224;2024-02-15T10:19:22;11.15;;;4.18;;
81306;SDS011;70775;50.846;3.224;2024-02-15T10:21:50;9.57;;;3.88;;
81306;SDS011;70775;50.846;3.224;2024-02-15T10:24:20;10.98;;;4.32;;
81306;SDS011;70775;50.846;3.224;2024-02-15T10:26:49;8.45;;;3.95;;
81306;SDS011;70775;50.846;3.224;2024-02-15T10:29:15;9.32;;;3.83;;
81306;SDS011;70775;50.846;3.224;2024-02-15T10:31:55;14.95;;;4.07;;
81306;SDS011;70775;50.846;3.224;2024-02-15T10:34:23;9.18;;;3.65;;
81306;SDS011;70775;50.846;3.224;2024-02-15T10:36:52;8.00;;;3.30;;
81306;SDS011;70775;50.846;3.224;2024-02-15T10:39:37;9.27;;;3.75;;
81306;SDS011;70775;50.846;3.224;2024-02-15T10:42:03;9.45;;;3.80;;
81306;SDS011;70775;50.846;3.224;2024-02-15T10:44:31;10.18;;;3.75;;
81306;SDS011;70775;50.846;3.224;2024-02-15T10:46:59;9.57;;;3.63;;
81306;SDS011;70775;50.846;3.224;2024-02-15T10:49:26;10.13;;;3.45;;
81306;SDS011;70775;50.846;3.224;2024-02-15T10:51:59;7.97;;;3.08;;
81306;SDS011;70775;50.846;3.224;2024-02-15T10:57:33;6.15;;;3.10;;
81306;SDS011;70775;50.846;3.224;2024-02-15T11:00:04;6.05;;;2.80;;
81306;SDS011;70775;50.846;3.224;2024-02-15T11:02:39;11.38;;;3.10;;
81306;SDS011;70775;50.846;3.224;2024-02-15T11:05:11;8.00;;;3.92;;
81306;SDS011;70775;50.846;3.224;2024-02-15T11:07:39;9.85;;;3.38;;
81306;SDS011;70775;50.846;3.224;2024-02-15T11:10:08;9.23;;;3.45;;
81306;SDS011;70775;50.846;3.224;2024-02-15T11:12:36;9.50;;;3.60;;
81306;SDS011;70775;50.846;3.224;2024-02-15T11:15:02;12.82;;;3.50;;
81306;SDS011;70775;50.846;3.224;2024-02-15T11:20:53;9.63;;;3.20;;
81306;SDS011;70775;50.846;3.224;2024-02-15T11:22:57;6.05;;;3.17;;
81306;SDS011;70775;50.846;3.224;2024-02-15T11:25:33;10.07;;;2.97;;
81306;SDS011;70775;50.846;3.224;2024-02-15T11:30:47;8.45;;;3.42;;
81306;SDS011;70775;50.846;3.224;2024-02-15T11:33:33;7.53;;;3.10;;
81306;SDS011;70775;50.846;3.224;2024-02-15T11:36:09;4.78;;;2.80;;
81306;SDS011;70775;50.846;3.224;2024-02-15T11:38:36;5.85;;;2.40;;
81306;SDS011;70775;50.846;3.224;2024-02-15T11:41:08;6.05;;;3.03;;
81306;SDS011;70775;50.846;3.224;2024-02-15T11:43:45;6.65;;;3.58;;
81306;SDS011;70775;50.846;3.224;2024-02-15T11:46:18;6.80;;;2.90;;
81306;SDS011;70775;50.846;3.224;2024-02-15T11:48:45;8.48;;;3.97;;
81306;SDS011;70775;50.846;3.224;2024-02-15T11:51:24;5.18;;;3.28;;
81306;SDS011;70775;50.846;3.224;2024-02-15T11:54:08;8.40;;;3.25;;
81306;SDS011;70775;50.846;3.224;2024-02-15T11:59:12;7.28;;;2.65;;
81306;SDS011;70775;50.846;3.224;2024-02-15T12:01:44;7.78;;;3.10;;
81306;SDS011;70775;50.846;3.224;2024-02-15T12:04:29;9.75;;;3.30;;
81306;SDS011;70775;50.846;3.224;2024-02-15T12:07:14;8.85;;;3.33;;
81306;SDS011;70775;50.846;3.224;2024-02-15T12:09:58;7.40;;;2.80;;
81306;SDS011;70775;50.846;3.224;2024-02-15T12:13:01;8.10;;;2.90;;
81306;SDS011;70775;50.846;3.224;2024-02-15T12:15:59;7.43;;;2.90;;
81306;SDS011;70775;50.846;3.224;2024-02-15T12:18:45;7.65;;;3.08;;
81306;SDS011;70775;50.846;3.224;2024-02-15T12:21:19;7.45;;;2.78;;
81306;SDS011;70775;50.846;3.224;2024-02-15T12:23:50;8.68;;;3.92;;
81306;SDS011;70775;50.846;3.224;2024-02-15T12:26:20;8.95;;;3.08;;
81306;SDS011;70775;50.846;3.224;2024-02-15T12:28:51;10.38;;;3.97;;
81306;SDS011;70775;50.846;3.224;2024-02-15T12:31:21;8.65;;;3.00;;
81306;SDS011;70775;50.846;3.224;2024-02-15T12:33:58;7.50;;;3.35;;
81306;SDS011;70775;50.846;3.224;2024-02-15T12:36:31;6.15;;;2.78;;
81306;SDS011;70775;50.846;3.224;2024-02-15T12:39:05;6.72;;;2.65;;
81306;SDS011;70775;50.846;3.224;2024-02-15T12:41:39;9.52;;;2.97;;
81306;SDS011;70775;50.846;3.224;2024-02-15T12:44:06;5.97;;;2.92;;
81306;SDS011;70775;50.846;3.224;2024-02-15T12:46:35;6.22;;;2.97;;
81306;SDS011;70775;50.846;3.224;2024-02-15T12:51:53;6.53;;;2.45;;
81306;SDS011;70775;50.846;3.224;2024-02-15T12:54:22;9.57;;;2.70;;
81306;SDS011;70775;50.846;3.224;2024-02-15T12:56:49;5.90;;;2.90;;
81306;SDS011;70775;50.846;3.224;2024-02-15T12:59:17;10.77;;;3.17;;
81306;SDS011;70775;50.846;3.224;2024-02-15T13:01:44;8.15;;;3.17;;
81306;SDS011;70775;50.846;3.224;2024-02-15T13:04:21;13.73;;;3.75;;
81306;SDS011;70775;50.846;3.224;2024-02-15T13:06:50;9.23;;;3.40;;
81306;SDS011;70775;50.846;3.224;2024-02-15T13:09:16;11.00;;;3.53;;
81306;SDS011;70775;50.846;3.224;2024-02-15T13:11:42;10.38;;;3.42;;
81306;SDS011;70775;50.846;3.224;2024-02-15T13:14:10;10.02;;;3.88;;
81306;SDS011;70775;50.846;3.224;2024-02-15T13:16:36;6.47;;;3.47;;
81306;SDS011;70775;50.846;3.224;2024-02-15T13:19:02;6.80;;;3.13;;
81306;SDS011;70775;50.846;3.224;2024-02-15T13:21:28;7.13;;;3.05;;
81306;SDS011;70775;50.846;3.224;2024-02-15T13:23:55;8.90;;;3.50;;
81306;SDS011;70775;50.846;3.224;2024-02-15T13:26:21;8.57;;;3.90;;
81306;SDS011;70775;50.846;3.224;2024-02-15T13:28:50;10.52;;;4.80;;
81306;SDS011;70775;50.846;3.224;2024-02-15T13:31:17;7.80;;;4.07;;
81306;SDS011;70775;50.846;3.224;2024-02-15T13:33:42;7.60;;;4.47;;
81306;SDS011;70775;50.846;3.224;2024-02-15T13:36:08;10.13;;;4.72;;
81306;SDS011;70775;50.846;3.224;2024-02-15T13:38:36;9.05;;;4.13;;
81306;SDS011;70775;50.846;3.224;2024-02-15T13:41:02;11.50;;;4.70;;
81306;SDS011;70775;50.846;3.224;2024-02-15T13:43:29;9.73;;;4.05;;
81306;SDS011;70775;50.846;3.224;2024-02-15T13:45:57;12.85;;;4.65;;
81306;SDS011;70775;50.846;3.224;2024-02-15T13:48:23;7.07;;;3.63;;
81306;SDS011;70775;50.846;3.224;2024-02-15T13:50:52;6.60;;;3.13;;
81306;SDS011;70775;50.846;3.224;2024-02-15T13:53:18;7.53;;;2.97;;
81306;SDS011;70775;50.846;3.224;2024-02-15T13:55:43;5.53;;;2.72;;
81306;SDS011;70775;50.846;3.224;2024-02-15T13:58:09;6.68;;;3.13;;
81306;SDS011;70775;50.846;3.224;2024-02-15T14:00:39;8.75;;;2.95;;
81306;SDS011;70775;50.846;3.224;2024-02-15T14:03:07;6.55;;;2.65;;
81306;SDS011;70775;50.846;3.224;2024-02-15T14:05:35;6.50;;;2.83;;
81306;SDS011;70775;50.846;3.224;2024-02-15T14:08:02;6.45;;;2.65;;
81306;SDS011;70775;50.846;3.224;2024-02-15T14:10:29;6.13;;;3.05;;
81306;SDS011;70775;50.846;3.224;2024-02-15T14:12:56;10.27;;;3.45;;
81306;SDS011;70775;50.846;3.224;2024-02-15T14:15:24;4.97;;;2.28;;
81306;SDS011;70775;50.846;3.224;2024-02-15T14:17:51;6.78;;;2.67;;
81306;SDS011;70775;50.846;3.224;2024-02-15T14:20:17;6.50;;;2.65;;
81306;SDS011;70775;50.846;3.224;2024-02-15T14:22:45;6.18;;;2.85;;
81306;SDS011;70775;50.846;3.224;2024-02-15T14:25:15;6.13;;;2.85;;
81306;SDS011;70775;50.846;3.224;2024-02-15T14:27:41;6.68;;;2.80;;
81306;SDS011;70775;50.846;3.224;2024-02-15T14:30:12;7.28;;;3.00;;
81306;SDS011;70775;50.846;3.224;2024-02-15T14:32:57;7.10;;;2.90;;
81306;SDS011;70775;50.846;3.224;2024-02-15T14:35:28;8.13;;;3.17;;
81306;SDS011;70775;50.846;3.224;2024-02-15T14:38:05;9.02;;;3.35;;
81306;SDS011;70775;50.846;3.224;2024-02-15T14:40:40;9.52;;;2.80;;
81306;SDS011;70775;50.846;3.224;2024-02-15T14:43:10;7.13;;;2.88;;
81306;SDS011;70775;50.846;3.224;2024-02-15T14:45:38;11.02;;;3.58;;
81306;SDS011;70775;50.846;3.224;2024-02-15T14:48:07;8.30;;;3.25;;
81306;SDS011;70775;50.846;3.224;2024-02-15T14:50:38;7.70;;;3.17;;
81306;SDS011;70775;50.846;3.224;2024-02-15T14:53:04;12.40;;;3.95;;
81306;SDS011;70775;50.846;3.224;2024-02-15T14:55:32;10.43;;;3.63;;
81306;SDS011;70775;50.846;3.224;2024-02-15T14:58:04;8.35;;;3.20;;
81306;SDS011;70775;50.846;3.224;2024-02-15T15:00:32;5.80;;;3.10;;